Time;durP1;ratioP1;P1;durP2;ratioP2;P2;SDS_P1;SDS_P2;PMS_P1;PMS_P2;Temp;Humidity;BMP_temperature;BMP_pressure;BME280_temperature;BME280_humidity;BME280_pressure;Samples;Min_cycle;Max_cycle;Signal;HPM_P1;HPM_P2
2022/12/24 00:01:36;;;;;;;42.80;5.63;;;10.20;99.90;;;;;;5076512;28;20200;-63
2022/12/24 00:04:32;;;;;;;33.57;5.20;;;10.30;99.90;;;;;;5075717;28;20203;-63
2022/12/24 00:07:00;;;;;;;47.23;6.27;;;10.40;99.90;;;;;;5076509;28;20215;-63
2022/12/24 00:09:28;;;;;;;33.50;6.07;;;10.40;99.90;;;;;;5076508;28;20224;-63
2022/12/24 00:11:57;;;;;;;40.10;5.80;;;10.50;99.90;;;;;;5075067;28;20275;-64
2022/12/24 00:14:27;;;;;;;36.53;5.80;;;10.60;99.90;;;;;;5076314;28;20682;-64
2022/12/24 00:16:55;;;;;;;38.97;5.87;;;10.70;99.90;;;;;;5076529;28;20208;-64
2022/12/24 00:19:24;;;;;;;39.20;6.10;;;10.70;99.90;;;;;;5076430;28;20196;-63
2022/12/24 00:21:52;;;;;;;36.77;5.80;;;10.80;99.90;;;;;;5076186;28;20239;-63
2022/12/24 00:24:20;;;;;;;38.93;6.10;;;10.70;99.90;;;;;;5076143;28;20550;-63
2022/12/24 00:26:49;;;;;;;41.13;6.33;;;10.70;99.90;;;;;;5076103;28;20670;-63
2022/12/24 00:29:17;;;;;;;33.43;4.97;;;10.70;99.90;;;;;;5076061;28;20191;-63
2022/12/24 00:31:47;;;;;;;33.10;5.00;;;10.70;99.90;;;;;;5076522;28;20283;-64
2022/12/24 00:34:15;;;;;;;32.80;5.40;;;10.70;99.90;;;;;;5075958;28;20188;-63
2022/12/24 00:36:43;;;;;;;31.50;4.57;;;10.70;99.90;;;;;;5074768;28;20226;-64
2022/12/24 00:39:12;;;;;;;26.13;4.83;;;10.70;99.90;;;;;;5075833;28;20195;-63
2022/12/24 00:41:40;;;;;;;42.57;5.87;;;10.80;99.90;;;;;;5076157;28;20196;-63
2022/12/24 00:44:09;;;;;;;24.83;5.00;;;10.70;99.90;;;;;;5075957;28;20185;-64
2022/12/24 00:46:40;;;;;;;25.37;4.47;;;10.70;99.90;;;;;;5074422;28;20184;-63
2022/12/24 00:49:12;;;;;;;29.47;4.73;;;10.70;99.90;;;;;;5076506;28;20196;-64
2022/12/24 00:51:41;;;;;;;28.37;4.30;;;10.60;99.90;;;;;;5074721;28;20271;-64
2022/12/24 00:54:09;;;;;;;29.97;5.17;;;10.60;99.90;;;;;;5075588;28;20188;-64
2022/12/24 00:56:37;;;;;;;29.57;5.50;;;10.50;99.90;;;;;;5075899;28;20216;-64
2022/12/24 01:07:44;;;;;;;38.80;6.03;;;10.40;99.90;;;;;;5075355;28;20203;-64
2022/12/24 01:10:15;;;;;;;36.13;5.17;;;10.40;99.90;;;;;;5075529;28;20307;-64
2022/12/24 01:12:43;;;;;;;34.13;4.83;;;10.40;99.90;;;;;;5057341;28;20184;-65
2022/12/24 01:15:14;;;;;;;34.73;5.20;;;10.40;99.90;;;;;;5075208;28;20219;-65
2022/12/24 01:17:42;;;;;;;32.93;5.50;;;10.40;99.90;;;;;;5075147;28;20261;-65
2022/12/24 01:20:14;;;;;;;33.63;5.33;;;10.40;99.90;;;;;;5075084;28;20555;-64
2022/12/24 01:22:45;;;;;;;39.63;5.90;;;10.40;99.90;;;;;;5073934;28;20184;-65
2022/12/24 01:25:14;;;;;;;37.50;6.00;;;10.30;99.90;;;;;;5074344;28;20275;-65
2022/12/24 01:27:42;;;;;;;36.43;5.20;;;10.30;99.90;;;;;;5075018;28;20194;-65
2022/12/24 01:30:14;;;;;;;45.70;5.83;;;10.30;99.90;;;;;;5075247;28;20196;-65
2022/12/24 01:32:43;;;;;;;30.10;5.07;;;10.30;99.90;;;;;;5075075;28;20196;-65
2022/12/24 01:35:11;;;;;;;36.83;6.50;;;10.30;99.90;;;;;;5074707;28;20200;-65
2022/12/24 01:37:41;;;;;;;40.03;5.60;;;10.30;99.90;;;;;;5074705;28;20293;-65
2022/12/24 01:45:49;;;;;;;40.43;6.50;;;10.30;99.90;;;;;;5074439;28;20670;-65
2022/12/24 01:48:28;;;;;;;33.00;5.83;;;10.30;99.90;;;;;;5073818;28;20267;-64
2022/12/24 01:51:02;;;;;;;36.23;5.77;;;10.40;99.90;;;;;;5073170;28;20202;-65
2022/12/24 01:53:34;;;;;;;45.27;5.63;;;10.30;99.90;;;;;;5074358;28;20188;-65
2022/12/24 01:56:05;;;;;;;40.13;5.33;;;10.30;99.90;;;;;;5074369;28;20192;-64
2022/12/24 01:58:36;;;;;;;49.33;5.67;;;10.30;99.90;;;;;;5074802;28;20248;-65
2022/12/24 02:05:50;;;;;;;41.93;5.10;;;10.30;99.90;;;;;;5074420;28;20161;-65
2022/12/24 02:08:19;;;;;;;38.27;4.93;;;10.30;99.90;;;;;;5074175;28;20195;-65
2022/12/24 02:10:48;;;;;;;40.67;5.90;;;10.30;99.90;;;;;;5074298;28;20235;-64
2022/12/24 02:13:20;;;;;;;39.33;5.70;;;10.30;99.90;;;;;;5073947;28;20196;-65
2022/12/24 02:16:06;;;;;;;36.20;5.30;;;10.40;99.90;;;;;;5073994;28;20199;-64
2022/12/24 02:18:43;;;;;;;41.83;5.80;;;10.40;99.90;;;;;;5074694;28;20536;-64
2022/12/24 02:21:40;;;;;;;31.43;5.67;;;10.40;99.90;;;;;;5073022;28;20188;-65
2022/12/24 02:24:42;;;;;;;34.83;5.50;;;10.40;99.90;;;;;;5074313;28;20181;-65
2022/12/24 02:27:36;;;;;;;24.77;4.47;;;10.30;99.90;;;;;;5071853;28;20208;-64
2022/12/24 02:30:10;;;;;;;30.37;5.20;;;10.40;99.90;;;;;;5055971;28;20191;-64
2022/12/24 02:32:53;;;;;;;33.43;5.47;;;10.40;99.90;;;;;;5073956;28;20222;-64
2022/12/24 02:35:27;;;;;;;37.37;5.83;;;10.40;99.90;;;;;;5073754;28;20180;-64
2022/12/24 02:38:01;;;;;;;38.77;5.50;;;10.40;99.90;;;;;;5073649;28;20297;-64
2022/12/24 02:40:34;;;;;;;33.63;5.33;;;10.40;99.90;;;;;;5074225;28;20187;-64
2022/12/24 02:47:44;;;;;;;31.00;4.70;;;10.40;99.90;;;;;;5073537;28;20167;-64
2022/12/24 02:50:16;;;;;;;27.67;4.73;;;10.30;99.90;;;;;;5073593;28;20218;-64
2022/12/24 02:52:46;;;;;;;29.33;5.30;;;10.30;99.90;;;;;;5072424;28;20188;-64
2022/12/24 02:55:19;;;;;;;22.70;4.37;;;10.30;99.90;;;;;;5073793;28;20647;-64
2022/12/24 02:58:01;;;;;;;25.33;4.97;;;10.30;99.90;;;;;;5073042;28;20214;-64
2022/12/24 03:00:40;;;;;;;17.70;4.20;;;10.30;99.90;;;;;;5073397;28;20199;-64
2022/12/24 03:03:25;;;;;;;21.73;4.80;;;10.30;99.90;;;;;;5073398;28;20559;-64
2022/12/24 03:06:00;;;;;;;21.17;4.37;;;10.20;99.90;;;;;;5072145;28;20188;-64
2022/12/24 03:08:37;;;;;;;28.37;4.27;;;10.10;99.90;;;;;;5073762;28;20222;-63
2022/12/24 03:11:10;;;;;;;19.37;4.40;;;10.10;99.90;;;;;;5074341;28;20204;-64
2022/12/24 03:13:38;;;;;;;25.50;4.67;;;10.10;99.90;;;;;;5073481;28;20176;-64
2022/12/24 03:16:09;;;;;;;21.23;4.67;;;10.10;99.90;;;;;;5071993;28;20195;-64
2022/12/24 03:18:42;;;;;;;22.17;4.17;;;10.10;99.90;;;;;;5073157;28;20271;-64
2022/12/24 03:21:14;;;;;;;20.87;4.27;;;10.10;99.90;;;;;;5073843;28;20512;-64
2022/12/24 03:23:42;;;;;;;21.70;4.33;;;10.10;99.90;;;;;;5073405;28;20190;-64
2022/12/24 03:26:13;;;;;;;18.33;4.37;;;10.10;99.90;;;;;;5073366;28;20668;-64
2022/12/24 03:28:43;;;;;;;22.20;4.43;;;10.10;99.90;;;;;;5073059;28;20192;-64
2022/12/24 03:31:12;;;;;;;16.83;4.60;;;10.20;99.90;;;;;;5073005;28;20196;-63
2022/12/24 03:33:42;;;;;;;20.43;4.40;;;10.10;99.90;;;;;;5073001;28;20199;-64
2022/12/24 03:36:11;;;;;;;21.43;4.97;;;10.10;99.90;;;;;;5071672;28;20191;-65
2022/12/24 03:38:40;;;;;;;23.83;4.50;;;10.10;99.90;;;;;;5073051;28;20212;-64
2022/12/24 03:41:08;;;;;;;29.50;5.00;;;10.00;99.90;;;;;;5072927;28;20188;-64
2022/12/24 03:43:37;;;;;;;24.23;4.80;;;10.00;99.90;;;;;;5072865;28;20192;-64
2022/12/24 03:46:07;;;;;;;32.70;5.87;;;9.90;99.90;;;;;;5072835;28;20194;-64
2022/12/24 03:48:36;;;;;;;37.63;5.70;;;9.80;99.90;;;;;;5071536;28;20188;-64
2022/12/24 03:51:16;;;;;;;24.73;5.40;;;9.80;99.90;;;;;;5072972;28;20199;-64
2022/12/24 03:53:44;;;;;;;31.23;5.17;;;9.80;99.90;;;;;;5073350;28;20184;-64
2022/12/24 03:56:13;;;;;;;35.70;5.67;;;9.80;99.90;;;;;;5073396;28;20305;-63
2022/12/24 03:58:42;;;;;;;35.90;6.27;;;9.70;99.90;;;;;;5054918;28;20212;-64
2022/12/24 04:05:48;;;;;;;37.07;5.70;;;9.80;99.90;;;;;;5072804;28;20227;-64
2022/12/24 04:12:11;;;;;;;34.63;6.17;;;9.90;99.90;;;;;;5072195;28;20275;-64
2022/12/24 04:15:20;;;;;;;37.13;5.63;;;9.90;99.90;;;;;;5055985;28;20572;-64
2022/12/24 04:18:28;;;;;;;28.57;6.30;;;9.90;99.90;;;;;;5056829;28;20651;-64
2022/12/24 04:21:37;;;;;;;38.00;5.57;;;9.90;99.90;;;;;;5056146;28;20200;-64
2022/12/24 04:24:45;;;;;;;34.40;5.87;;;9.90;99.90;;;;;;5056133;28;20234;-64
2022/12/24 04:27:55;;;;;;;34.80;5.37;;;9.90;99.90;;;;;;5056142;28;20236;-64
2022/12/24 04:31:06;;;;;;;42.90;5.63;;;9.80;99.90;;;;;;5056163;28;20181;-64
2022/12/24 04:34:14;;;;;;;44.63;6.87;;;9.80;99.90;;;;;;5036224;28;20197;-65
2022/12/24 04:37:23;;;;;;;41.70;5.77;;;9.70;99.90;;;;;;5036185;28;20181;-64
2022/12/24 04:40:31;;;;;;;33.23;5.10;;;9.60;99.90;;;;;;5035965;28;20671;-65
2022/12/24 04:43:41;;;;;;;37.73;5.43;;;9.70;99.90;;;;;;5036092;28;20256;-64
2022/12/24 04:46:49;;;;;;;38.60;5.00;;;9.70;99.90;;;;;;5035976;28;20644;-63
2022/12/24 04:49:58;;;;;;;36.40;5.57;;;9.60;99.90;;;;;;5035905;28;20240;-64
2022/12/24 04:53:06;;;;;;;30.70;5.57;;;9.60;99.90;;;;;;5035643;28;20192;-63
2022/12/24 04:56:17;;;;;;;38.40;6.63;;;9.60;99.90;;;;;;5035780;28;20182;-63
2022/12/24 04:59:27;;;;;;;40.40;5.83;;;9.50;99.90;;;;;;5036156;28;20241;-63
2022/12/24 05:02:35;;;;;;;44.20;6.03;;;9.50;99.90;;;;;;5035656;28;20217;-63
2022/12/24 05:05:44;;;;;;;36.57;5.43;;;9.60;99.90;;;;;;5035368;28;20236;-63
2022/12/24 05:08:54;;;;;;;37.47;5.43;;;9.60;99.90;;;;;;5035714;28;20252;-64
2022/12/24 05:12:03;;;;;;;27.93;5.80;;;9.60;99.90;;;;;;5055248;28;20264;-64
2022/12/24 05:15:12;;;;;;;43.20;5.73;;;9.60;99.90;;;;;;5055352;28;20185;-64
2022/12/24 05:18:21;;;;;;;37.03;6.00;;;9.70;99.90;;;;;;5054842;28;20220;-64
2022/12/24 05:21:29;;;;;;;47.00;6.27;;;9.80;99.90;;;;;;5054868;28;20220;-63
2022/12/24 05:28:04;;;;;;;35.67;4.97;;;9.80;99.90;;;;;;5054920;28;20185;-64
2022/12/24 05:31:14;;;;;;;30.40;5.20;;;9.80;99.90;;;;;;5054907;28;20609;-64
2022/12/24 05:34:22;;;;;;;42.37;6.83;;;9.90;99.90;;;;;;5050659;28;20281;-64
2022/12/24 05:37:28;;;;;;;40.13;6.40;;;10.00;99.90;;;;;;5055131;28;20315;-64
2022/12/24 05:39:56;;;;;;;34.77;5.73;;;10.00;99.90;;;;;;5087418;28;20216;-64
2022/12/24 05:42:25;;;;;;;38.03;6.13;;;10.00;99.90;;;;;;5054980;28;20547;-64
2022/12/24 05:44:53;;;;;;;36.03;6.07;;;10.00;99.90;;;;;;5054722;28;20268;-64
2022/12/24 05:47:24;;;;;;;34.53;6.77;;;10.00;99.90;;;;;;5053309;28;20193;-64
2022/12/24 05:49:52;;;;;;;33.67;5.83;;;10.00;99.90;;;;;;5053204;28;20196;-64
2022/12/24 05:52:24;;;;;;;36.40;5.73;;;10.00;99.90;;;;;;5053249;28;20599;-64
2022/12/24 05:54:52;;;;;;;31.67;5.87;;;9.90;99.90;;;;;;5053198;28;20185;-64
2022/12/24 05:57:20;;;;;;;43.03;7.07;;;9.90;99.90;;;;;;5054426;28;20267;-63
2022/12/24 05:59:49;;;;;;;38.43;6.93;;;9.90;99.90;;;;;;5054270;28;20212;-64
2022/12/24 06:02:17;;;;;;;42.03;6.03;;;9.80;99.90;;;;;;5054436;28;20604;-64
2022/12/24 06:04:47;;;;;;;44.73;6.93;;;9.80;99.90;;;;;;5054300;28;20195;-64
2022/12/24 06:07:15;;;;;;;43.40;6.83;;;9.80;99.90;;;;;;5054559;28;20201;-64
2022/12/24 06:09:43;;;;;;;34.13;6.73;;;9.90;99.90;;;;;;5052780;28;20189;-64
2022/12/24 06:12:12;;;;;;;48.40;6.97;;;9.80;99.90;;;;;;5054244;28;20188;-64
2022/12/24 06:14:40;;;;;;;32.80;7.20;;;9.80;99.90;;;;;;5054076;28;20192;-64
2022/12/24 06:17:09;;;;;;;41.63;6.43;;;9.80;99.90;;;;;;5054461;28;20192;-64
2022/12/24 06:19:37;;;;;;;44.13;6.73;;;9.80;99.90;;;;;;5054099;28;20255;-64
2022/12/24 06:22:07;;;;;;;44.27;6.23;;;9.80;99.90;;;;;;5067635;28;20196;-65
2022/12/24 06:24:35;;;;;;;34.47;6.83;;;9.90;99.90;;;;;;5073806;28;20544;-65
2022/12/24 06:27:03;;;;;;;44.07;7.00;;;9.90;99.90;;;;;;5073920;28;20203;-64
2022/12/24 06:29:32;;;;;;;36.40;6.93;;;9.90;99.90;;;;;;5074410;28;20184;-64
2022/12/24 06:32:00;;;;;;;42.10;6.50;;;9.90;99.90;;;;;;5073659;28;20241;-64
2022/12/24 06:34:29;;;;;;;34.43;7.00;;;10.00;99.90;;;;;;5073365;28;20220;-63
2022/12/24 06:36:57;;;;;;;30.87;6.30;;;9.90;99.90;;;;;;5073890;28;20654;-63
2022/12/24 06:39:27;;;;;;;35.67;6.40;;;10.00;99.90;;;;;;5073572;28;20243;-64
2022/12/24 06:41:56;;;;;;;35.97;6.10;;;10.00;99.90;;;;;;5072458;28;20223;-63
2022/12/24 06:44:25;;;;;;;53.23;8.10;;;10.00;99.90;;;;;;5072320;28;20202;-63
2022/12/24 06:46:53;;;;;;;36.00;6.73;;;10.10;99.90;;;;;;5073973;28;20646;-63
2022/12/24 06:49:21;;;;;;;27.53;5.07;;;10.10;99.90;;;;;;5072261;28;20254;-64
2022/12/24 06:51:50;;;;;;;37.07;5.93;;;10.10;99.90;;;;;;5073489;28;20654;-64
2022/12/24 06:54:18;;;;;;;30.53;6.20;;;10.10;99.90;;;;;;5073970;28;20214;-64
2022/12/24 06:56:48;;;;;;;38.63;6.37;;;10.10;99.90;;;;;;5073490;28;20630;-64
2022/12/24 06:59:16;;;;;;;30.17;6.20;;;10.10;99.90;;;;;;5073374;28;20208;-64
2022/12/24 07:01:44;;;;;;;32.83;5.83;;;10.20;99.90;;;;;;5073291;28;20188;-64
2022/12/24 07:04:13;;;;;;;38.03;5.53;;;10.20;99.90;;;;;;5073330;28;20188;-64
2022/12/24 07:06:48;;;;;;;38.77;6.67;;;10.20;99.90;;;;;;5105986;28;20189;-64
2022/12/24 07:09:16;;;;;;;31.33;6.60;;;10.10;99.90;;;;;;5072041;28;20198;-64
2022/12/24 07:11:44;;;;;;;40.47;6.57;;;10.10;99.90;;;;;;5073170;28;20612;-63
2022/12/24 07:14:14;;;;;;;37.07;6.13;;;10.10;99.90;;;;;;5073228;28;20184;-64
2022/12/24 07:16:42;;;;;;;33.13;6.97;;;10.10;99.90;;;;;;5073179;28;20188;-64
2022/12/24 07:19:11;;;;;;;35.60;6.47;;;10.10;99.90;;;;;;5073056;28;20198;-64
2022/12/24 07:21:39;;;;;;;35.00;7.20;;;10.10;99.90;;;;;;5073071;28;20199;-64
2022/12/24 07:24:08;;;;;;;39.87;7.20;;;10.10;99.90;;;;;;5073202;28;20220;-63
2022/12/24 07:26:36;;;;;;;41.13;6.07;;;10.10;99.90;;;;;;5073697;28;20203;-64
2022/12/24 07:29:04;;;;;;;48.53;6.87;;;10.10;99.90;;;;;;5073132;28;20184;-64
2022/12/24 07:31:34;;;;;;;32.73;6.93;;;10.00;99.90;;;;;;5072320;28;20196;-64
2022/12/24 07:34:03;;;;;;;34.33;6.57;;;10.00;99.90;;;;;;5071882;28;20184;-63
2022/12/24 07:36:31;;;;;;;37.13;6.67;;;10.00;99.90;;;;;;5073009;28;20203;-63
2022/12/24 07:39:00;;;;;;;35.30;6.60;;;9.90;99.90;;;;;;5072983;28;20275;-64
2022/12/24 07:41:28;;;;;;;31.90;6.60;;;9.90;99.90;;;;;;5072852;28;20210;-64
2022/12/24 07:48:36;;;;;;;36.60;5.70;;;9.80;99.90;;;;;;5076894;28;20163;-63
2022/12/24 07:51:04;;;;;;;47.60;7.00;;;9.70;99.90;;;;;;5077193;28;20649;-64
2022/12/24 07:53:33;;;;;;;36.93;6.10;;;9.70;99.90;;;;;;5075482;28;20188;-64
2022/12/24 07:56:01;;;;;;;39.77;6.90;;;9.70;99.90;;;;;;5076721;28;20223;-63
2022/12/24 07:58:37;;;;;;;37.50;6.90;;;9.70;99.90;;;;;;5077055;28;20696;-63
2022/12/24 08:01:06;;;;;;;40.00;7.33;;;9.80;99.90;;;;;;5076507;28;20301;-63
2022/12/24 08:03:36;;;;;;;41.80;7.03;;;9.70;99.90;;;;;;5075532;28;20218;-64
2022/12/24 08:06:05;;;;;;;35.70;6.50;;;9.80;99.90;;;;;;5076456;28;20199;-64
2022/12/24 08:08:34;;;;;;;38.97;6.63;;;9.70;99.90;;;;;;5076548;28;20189;-63
2022/12/24 08:11:03;;;;;;;36.07;6.70;;;9.80;99.90;;;;;;5076219;28;20701;-63
2022/12/24 08:13:32;;;;;;;33.70;6.50;;;9.80;99.90;;;;;;5076416;28;20238;-63
2022/12/24 08:16:01;;;;;;;35.53;5.87;;;9.80;99.90;;;;;;5076677;28;20184;-64
2022/12/24 08:18:32;;;;;;;40.37;6.73;;;9.90;99.90;;;;;;5076550;28;20189;-63
2022/12/24 08:21:02;;;;;;;50.20;6.80;;;9.90;99.90;;;;;;5066557;28;20231;-64
2022/12/24 08:23:30;;;;;;;37.07;6.77;;;9.80;99.90;;;;;;5060241;28;20237;-64
2022/12/24 08:25:59;;;;;;;38.37;7.10;;;9.90;99.90;;;;;;5068001;28;20267;-64
2022/12/24 08:28:27;;;;;;;35.77;6.37;;;9.90;99.90;;;;;;5072527;28;20192;-64
2022/12/24 08:30:55;;;;;;;33.73;6.57;;;9.90;99.90;;;;;;5066696;28;20287;-64
2022/12/24 08:33:24;;;;;;;38.73;6.80;;;10.00;99.90;;;;;;5071317;28;20561;-64
2022/12/24 08:35:53;;;;;;;33.13;6.03;;;10.00;99.90;;;;;;5064013;28;20546;-64
2022/12/24 08:38:24;;;;;;;41.10;7.33;;;10.00;99.90;;;;;;5072249;28;20628;-64
2022/12/24 08:40:54;;;;;;;37.77;7.13;;;10.00;99.90;;;;;;5070024;28;20228;-64
2022/12/24 08:43:24;;;;;;;29.83;6.23;;;10.00;99.90;;;;;;5074612;28;20199;-64
2022/12/24 08:45:53;;;;;;;33.57;6.13;;;10.00;99.90;;;;;;5072519;28;20204;-64
2022/12/24 08:48:21;;;;;;;33.27;6.83;;;10.10;99.90;;;;;;5075108;28;20558;-64
2022/12/24 08:50:50;;;;;;;45.97;7.33;;;10.00;99.90;;;;;;5075570;28;20196;-64
2022/12/24 08:53:18;;;;;;;35.63;7.67;;;10.10;99.90;;;;;;5074521;28;20261;-64
2022/12/24 08:55:49;;;;;;;40.97;8.33;;;10.10;99.90;;;;;;5072807;28;20657;-64
2022/12/24 08:58:23;;;;;;;39.97;7.17;;;10.10;99.90;;;;;;5067795;28;20200;-64
2022/12/24 09:00:52;;;;;;;38.67;7.33;;;10.10;99.90;;;;;;5072985;28;20787;-64
2022/12/24 09:03:20;;;;;;;31.60;6.17;;;10.20;99.90;;;;;;5075955;28;20200;-64
2022/12/24 09:05:55;;;;;;;37.50;7.00;;;10.20;99.90;;;;;;5071624;28;20199;-64
2022/12/24 09:08:24;;;;;;;35.90;6.50;;;10.20;99.90;;;;;;5064277;28;20200;-64
2022/12/24 09:10:53;;;;;;;35.17;6.63;;;10.20;99.90;;;;;;5071167;28;20256;-64
2022/12/24 09:13:22;;;;;;;30.17;6.60;;;10.20;99.90;;;;;;5073129;28;20192;-64
2022/12/24 09:15:54;;;;;;;31.03;6.57;;;10.20;99.90;;;;;;5070834;28;20278;-64
2022/12/24 09:18:23;;;;;;;27.60;5.50;;;10.20;99.90;;;;;;5067196;28;20218;-64
2022/12/24 09:20:52;;;;;;;34.57;6.13;;;10.20;99.90;;;;;;5065918;28;20609;-64
2022/12/24 09:23:24;;;;;;;44.27;7.97;;;10.20;99.90;;;;;;5065368;28;20227;-64
2022/12/24 09:25:54;;;;;;;33.00;7.53;;;10.20;99.90;;;;;;5066731;28;20201;-64
2022/12/24 09:28:23;;;;;;;37.37;7.23;;;10.20;99.90;;;;;;5077390;28;20216;-64
2022/12/24 09:30:59;;;;;;;34.57;6.60;;;10.20;99.90;;;;;;5064836;28;20200;-64
2022/12/24 09:33:29;;;;;;;35.07;6.10;;;10.30;99.90;;;;;;5072776;28;20198;-64
2022/12/24 09:35:58;;;;;;;35.17;6.30;;;10.30;99.90;;;;;;5060043;28;20201;-64
2022/12/24 09:38:26;;;;;;;40.50;6.23;;;10.30;99.90;;;;;;5074504;28;20199;-64
2022/12/24 09:40:56;;;;;;;28.27;5.90;;;10.30;99.90;;;;;;5076141;28;20593;-64
2022/12/24 09:43:33;;;;;;;32.53;6.47;;;10.30;99.90;;;;;;5072771;28;20893;-64
2022/12/24 09:46:09;;;;;;;39.87;6.63;;;10.30;99.90;;;;;;5058846;28;20208;-64
2022/12/24 09:48:41;;;;;;;36.60;6.03;;;10.40;99.90;;;;;;5059155;28;20236;-64
2022/12/24 09:51:11;;;;;;;33.10;6.90;;;10.50;99.90;;;;;;5060390;28;20716;-64
2022/12/24 09:53:43;;;;;;;33.50;6.23;;;10.50;99.90;;;;;;5061582;28;20566;-64
2022/12/24 09:56:17;;;;;;;37.93;6.03;;;10.60;99.90;;;;;;5067404;28;20733;-64
2022/12/24 09:58:49;;;;;;;31.33;6.53;;;10.60;99.90;;;;;;5059105;28;20201;-64
2022/12/24 10:01:18;;;;;;;35.10;6.33;;;10.70;99.90;;;;;;5068080;28;20282;-64
2022/12/24 10:03:47;;;;;;;31.90;6.43;;;10.80;99.90;;;;;;5063479;28;20707;-64
2022/12/24 10:06:20;;;;;;;35.80;6.67;;;10.80;99.90;;;;;;5071816;28;20203;-64
2022/12/24 10:09:11;;;;;;;41.20;6.40;;;10.90;99.90;;;;;;5065874;28;20257;-64
2022/12/24 10:11:49;;;;;;;34.17;5.87;;;10.90;99.90;;;;;;5068693;28;20221;-64
2022/12/24 10:14:37;;;;;;;30.63;5.77;;;11.00;99.90;;;;;;5062818;28;20184;-64
2022/12/24 10:17:22;;;;;;;30.17;5.10;;;11.20;99.90;;;;;;5070660;28;20196;-64
2022/12/24 10:20:01;;;;;;;31.67;5.57;;;11.30;99.90;;;;;;5061706;28;20199;-65
2022/12/24 10:22:37;;;;;;;38.07;5.73;;;11.40;99.90;;;;;;5061601;28;20571;-64
2022/12/24 10:25:17;;;;;;;40.30;6.37;;;11.50;99.90;;;;;;5066154;28;20212;-64
2022/12/24 10:27:47;;;;;;;36.30;5.90;;;11.50;99.90;;;;;;5068218;28;20195;-64
2022/12/24 10:30:18;;;;;;;32.83;5.67;;;11.70;99.90;;;;;;5065572;28;20196;-64
2022/12/24 10:32:52;;;;;;;29.20;5.60;;;11.70;99.90;;;;;;5063979;28;20624;-64
2022/12/24 10:35:25;;;;;;;28.50;5.67;;;11.70;99.90;;;;;;5067181;28;20197;-65
2022/12/24 10:37:55;;;;;;;30.10;5.83;;;11.70;99.90;;;;;;5049724;28;20215;-64
2022/12/24 10:40:31;;;;;;;34.83;5.57;;;11.60;99.90;;;;;;5063427;28;20192;-64
2022/12/24 10:43:01;;;;;;;34.60;6.23;;;11.60;99.90;;;;;;5066739;28;20229;-64
2022/12/24 10:45:39;;;;;;;28.03;5.37;;;11.60;99.90;;;;;;5063638;28;20188;-64
2022/12/24 10:48:13;;;;;;;30.43;6.13;;;11.60;99.90;;;;;;5067146;28;20206;-64
2022/12/24 10:50:51;;;;;;;30.53;5.97;;;11.50;99.90;;;;;;5071648;28;20658;-64
2022/12/24 10:53:28;;;;;;;32.80;6.57;;;11.50;99.90;;;;;;5071141;28;20196;-64
2022/12/24 10:56:05;;;;;;;26.87;5.60;;;11.60;99.90;;;;;;5065294;28;20201;-64
2022/12/24 10:58:35;;;;;;;27.53;5.23;;;11.70;99.90;;;;;;5066526;28;20195;-64
2022/12/24 11:01:04;;;;;;;31.43;6.20;;;11.70;99.90;;;;;;5066158;28;20203;-64
2022/12/24 11:03:34;;;;;;;35.43;5.57;;;11.70;99.90;;;;;;5062437;28;20230;-64
2022/12/24 11:06:10;;;;;;;38.73;6.03;;;11.60;99.90;;;;;;5066177;28;20665;-64
2022/12/24 11:08:41;;;;;;;28.30;6.00;;;11.60;99.90;;;;;;5066261;28;20271;-64
2022/12/24 11:11:12;;;;;;;34.83;7.00;;;11.70;99.90;;;;;;5062212;28;20587;-64
2022/12/24 11:13:44;;;;;;;40.97;6.77;;;11.70;99.90;;;;;;5061806;28;20629;-64
2022/12/24 11:16:20;;;;;;;33.87;6.80;;;11.70;99.90;;;;;;5064714;28;20288;-64
2022/12/24 11:18:53;;;;;;;26.37;6.83;;;11.70;99.90;;;;;;5065511;28;20279;-64
2022/12/24 11:21:24;;;;;;;38.10;6.17;;;11.80;99.90;;;;;;5063039;28;20262;-64
2022/12/24 11:23:56;;;;;;;34.23;6.67;;;11.90;99.90;;;;;;5065509;28;20312;-64
2022/12/24 11:26:26;;;;;;;29.30;6.57;;;11.90;99.90;;;;;;5069221;28;20684;-64
2022/12/24 11:29:15;;;;;;;33.80;7.40;;;11.90;99.90;;;;;;5067439;28;20192;-64
2022/12/24 11:31:45;;;;;;;35.20;6.77;;;11.90;99.90;;;;;;5069971;28;20639;-64
2022/12/24 11:34:34;;;;;;;23.93;6.33;;;12.00;99.90;;;;;;5065480;28;20192;-64
2022/12/24 11:37:10;;;;;;;31.80;5.87;;;12.10;99.90;;;;;;5095149;28;20218;-64
2022/12/24 11:39:47;;;;;;;41.53;6.87;;;12.20;99.90;;;;;;5070354;28;20250;-64
2022/12/24 11:42:31;;;;;;;25.23;6.33;;;12.30;99.90;;;;;;5065598;28;20223;-64
2022/12/24 11:45:04;;;;;;;28.00;6.60;;;12.30;99.90;;;;;;5063580;28;20288;-64
2022/12/24 11:47:34;;;;;;;28.40;6.20;;;12.40;99.90;;;;;;5068894;28;20201;-64
2022/12/24 11:50:22;;;;;;;30.63;6.70;;;12.60;99.90;;;;;;5067766;28;20849;-64
2022/12/24 11:52:56;;;;;;;32.87;7.17;;;12.90;99.90;;;;;;5056524;28;20192;-64
2022/12/24 11:55:35;;;;;;;23.63;6.03;;;13.00;99.90;;;;;;5059418;28;20203;-64
2022/12/24 11:58:12;;;;;;;39.87;6.87;;;13.00;99.90;;;;;;5065187;28;20555;-64
2022/12/24 12:00:44;;;;;;;32.13;6.33;;;13.10;99.90;;;;;;5065663;28;20204;-64
2022/12/24 12:03:29;;;;;;;34.77;6.43;;;13.10;99.90;;;;;;5061891;28;20215;-64
2022/12/24 12:06:02;;;;;;;36.57;6.03;;;13.00;99.90;;;;;;5059565;28;20200;-64
2022/12/24 12:08:33;;;;;;;29.70;5.90;;;12.90;99.90;;;;;;5096353;28;20191;-64
2022/12/24 12:11:14;;;;;;;27.40;6.80;;;12.80;99.90;;;;;;5060472;28;20224;-64
2022/12/24 12:13:45;;;;;;;34.33;7.27;;;12.80;99.90;;;;;;5064757;28;20185;-64
2022/12/24 12:16:23;;;;;;;30.07;6.47;;;12.80;99.90;;;;;;5066796;28;20682;-64
2022/12/24 12:18:57;;;;;;;36.10;7.07;;;12.70;99.90;;;;;;5064592;28;20203;-64
2022/12/24 12:21:32;;;;;;;43.77;6.87;;;12.70;99.90;;;;;;5061279;28;20591;-64
2022/12/24 12:24:05;;;;;;;30.87;6.17;;;12.70;99.90;;;;;;5069701;28;20234;-64
2022/12/24 12:26:34;;;;;;;34.87;6.17;;;12.80;99.90;;;;;;5062286;28;20238;-65
2022/12/24 12:29:06;;;;;;;32.70;6.20;;;12.90;99.90;;;;;;5071365;28;20199;-64
2022/12/24 12:31:41;;;;;;;30.67;6.17;;;12.90;99.90;;;;;;5066204;28;20208;-64
2022/12/24 12:34:16;;;;;;;30.47;6.60;;;13.00;99.90;;;;;;5067159;28;20262;-64
2022/12/24 12:36:48;;;;;;;28.57;6.13;;;13.10;99.90;;;;;;5100231;28;20561;-64
2022/12/24 12:39:17;;;;;;;39.07;6.83;;;13.00;99.90;;;;;;5070099;28;20308;-64
2022/12/24 12:41:53;;;;;;;28.63;7.03;;;13.00;99.90;;;;;;5066734;28;20193;-64
2022/12/24 12:44:41;;;;;;;27.03;6.07;;;13.10;99.90;;;;;;5062935;28;20203;-64
2022/12/24 12:47:34;;;;;;;33.00;7.00;;;13.10;99.90;;;;;;5071031;28;20207;-64
2022/12/24 12:50:10;;;;;;;23.50;5.50;;;13.20;99.90;;;;;;5083774;28;20193;-64
2022/12/24 12:53:11;;;;;;;29.33;6.43;;;13.20;99.90;;;;;;5068566;28;20185;-64
2022/12/24 12:55:47;;;;;;;33.33;6.13;;;13.20;99.90;;;;;;5032607;28;20849;-64
2022/12/24 12:58:21;;;;;;;37.43;6.90;;;13.30;99.90;;;;;;5072672;28;20205;-64
2022/12/24 13:00:55;;;;;;;33.97;6.83;;;13.20;99.90;;;;;;5070443;28;20218;-64
2022/12/24 13:04:01;;;;;;;33.97;7.50;;;13.20;99.90;;;;;;5071783;28;20667;-64
2022/12/24 13:07:09;;;;;;;38.37;7.13;;;13.10;99.90;;;;;;5057327;28;20539;-64
2022/12/24 13:10:10;;;;;;;30.60;6.67;;;13.00;99.90;;;;;;5034322;28;20210;-64
2022/12/24 13:12:54;;;;;;;33.30;6.23;;;12.90;99.90;;;;;;5055552;28;20642;-64
2022/12/24 13:15:50;;;;;;;33.60;6.30;;;13.00;99.90;;;;;;5058539;28;20196;-64
2022/12/24 13:18:54;;;;;;;25.07;5.50;;;13.00;99.90;;;;;;5060465;28;20687;-64
2022/12/24 13:21:26;;;;;;;33.97;5.97;;;12.90;99.90;;;;;;5059506;28;20204;-64
2022/12/24 13:24:05;;;;;;;23.07;5.20;;;13.00;99.90;;;;;;5079005;28;20223;-64
2022/12/24 13:26:34;;;;;;;28.97;5.20;;;12.90;99.90;;;;;;5064539;28;20257;-64
2022/12/24 13:29:30;;;;;;;32.77;5.77;;;13.00;99.90;;;;;;5058305;28;20624;-64
2022/12/24 13:32:33;;;;;;;27.20;6.57;;;12.90;99.90;;;;;;5051049;28;20641;-64
2022/12/24 13:35:25;;;;;;;34.47;5.83;;;12.90;99.90;;;;;;5063980;28;20236;-64
2022/12/24 13:37:53;;;;;;;26.27;5.63;;;12.90;99.90;;;;;;5077031;28;20196;-64
2022/12/24 13:40:25;;;;;;;28.40;6.03;;;12.80;99.90;;;;;;5070646;28;20199;-64
2022/12/24 13:43:11;;;;;;;30.20;5.73;;;12.80;99.90;;;;;;5070323;28;20239;-64
2022/12/24 13:45:48;;;;;;;24.37;5.50;;;12.80;99.90;;;;;;5069273;28;20311;-64
2022/12/24 13:48:32;;;;;;;21.17;5.80;;;12.70;99.90;;;;;;5056694;28;20204;-64
2022/12/24 13:51:19;;;;;;;29.47;6.70;;;12.70;99.90;;;;;;5066919;28;20261;-64
2022/12/24 13:53:48;;;;;;;21.40;5.77;;;12.70;99.90;;;;;;5067687;28;20189;-64
2022/12/24 13:56:25;;;;;;;25.97;5.63;;;12.70;99.90;;;;;;5068401;28;20192;-64
2022/12/24 13:59:09;;;;;;;22.27;5.07;;;12.60;99.90;;;;;;5066626;28;20275;-65
2022/12/24 14:01:40;;;;;;;26.37;6.13;;;12.50;99.90;;;;;;5069235;28;20661;-65
2022/12/24 14:04:20;;;;;;;26.03;5.77;;;12.40;99.90;;;;;;5089746;28;20223;-64